createdAt,value
2019-05-20T00:02:28.178Z,100345.02
2019-05-20T00:04:59.028Z,100340.45
2019-05-20T00:07:32.501Z,100336.19
2019-05-20T00:10:09.330Z,100336.36
2019-05-20T00:12:42.800Z,100330.75
2019-05-20T00:15:16.454Z,100337.69
2019-05-20T00:17:49.936Z,100333.42
2019-05-20T00:20:23.436Z,100334.19
2019-05-20T00:22:56.915Z,100337.96
2019-05-20T00:25:30.493Z,100336.97
2019-05-20T00:28:04.102Z,100343.50
2019-05-20T00:30:37.681Z,100338.28
2019-05-20T00:33:11.223Z,100338.56
2019-05-20T00:35:44.733Z,100340.08
2019-05-20T00:38:18.280Z,100341.43
2019-05-20T00:40:51.926Z,100330.92
2019-05-20T00:43:25.513Z,100329.77
2019-05-20T00:45:59.027Z,100331.52
2019-05-20T00:48:32.511Z,100332.12
2019-05-20T00:51:06.099Z,100332.91
2019-05-20T00:53:39.645Z,100334.63
2019-05-20T00:56:13.244Z,100338.20
2019-05-20T00:58:46.705Z,100346.92
2019-05-20T01:01:20.271Z,100352.26
2019-05-20T01:03:53.820Z,100355.44
2019-05-20T01:06:27.401Z,100355.84
2019-05-20T01:09:00.868Z,100360.86
2019-05-20T01:11:34.515Z,100361.25
2019-05-20T01:14:08.121Z,100358.34
2019-05-20T01:16:41.625Z,100355.87
2019-05-20T01:19:15.172Z,100357.91
2019-05-20T01:21:48.736Z,100362.45
2019-05-20T01:24:22.227Z,100364.59
2019-05-20T01:26:55.805Z,100367.22
2019-05-20T01:29:29.277Z,100367.10
2019-05-20T01:32:02.799Z,100365.35
2019-05-20T01:34:36.305Z,100366.63
2019-05-20T01:37:09.899Z,100363.05
2019-05-20T01:39:43.402Z,100374.27
2019-05-20T01:42:16.986Z,100370.61
2019-05-20T01:44:50.468Z,100368.29
2019-05-20T01:47:23.971Z,100374.47
2019-05-20T01:49:57.463Z,100369.25
2019-05-20T01:52:30.979Z,100370.52
2019-05-20T01:55:06.822Z,100368.29
2019-05-20T01:57:40.331Z,100364.51
2019-05-20T02:00:15.114Z,100364.34
2019-05-20T02:02:48.718Z,100361.91
2019-05-20T02:05:22.440Z,100359.52
2019-05-20T02:07:55.959Z,100357.77
2019-05-20T02:10:29.505Z,100361.91
2019-05-20T02:13:03.062Z,100362.70
2019-05-20T02:15:38.244Z,100354.58
2019-05-20T02:18:11.891Z,100361.75
2019-05-20T02:20:45.466Z,100343.23
2019-05-20T02:23:18.963Z,100354.10
2019-05-20T02:25:52.526Z,100355.14
2019-05-20T02:28:26.126Z,100348.17
2019-05-20T02:30:59.599Z,100363.35
2019-05-20T02:33:49.825Z,100348.94
2019-05-20T02:36:08.385Z,100354.24
2019-05-20T02:38:41.954Z,100358.39
2019-05-20T02:41:15.471Z,100356.16
2019-05-20T02:43:49.057Z,100349.67
2019-05-20T02:46:22.526Z,100349.75
2019-05-20T02:48:56.114Z,100343.34
2019-05-20T02:51:32.317Z,100343.90
2019-05-20T02:54:05.884Z,100349.52
2019-05-20T02:56:39.361Z,100347.88
2019-05-20T02:59:13.035Z,100356.67
2019-05-20T03:01:46.522Z,100357.31
2019-05-20T03:04:20.139Z,100363.00
2019-05-20T03:06:53.766Z,100359.48
2019-05-20T03:09:27.279Z,100364.19
2019-05-20T03:12:00.765Z,100369.52
2019-05-20T03:14:34.331Z,100366.81
2019-05-20T03:17:07.821Z,100368.00
2019-05-20T03:19:41.325Z,100378.91
2019-05-20T03:22:14.795Z,100377.08
2019-05-20T03:24:48.318Z,100372.63
2019-05-20T03:27:21.832Z,100372.63
2019-05-20T03:29:55.497Z,100366.73
2019-05-20T03:32:29.032Z,100362.95
2019-05-20T03:35:02.808Z,100356.26
2019-05-20T03:37:36.454Z,100357.52
2019-05-20T03:40:10.391Z,100352.45
2019-05-20T03:42:43.874Z,100345.37
2019-05-20T03:45:17.609Z,100348.60
2019-05-20T03:47:51.097Z,100355.92
2019-05-20T03:50:24.693Z,100359.09
2019-05-20T03:52:58.283Z,100359.09
2019-05-20T03:55:31.850Z,100356.11
2019-05-20T03:58:05.404Z,100345.29
2019-05-20T04:00:46.907Z,100354.96
2019-05-20T04:03:20.451Z,100351.99
2019-05-20T04:05:54.034Z,100342.63
2019-05-20T04:08:27.599Z,100341.97
2019-05-20T04:11:01.173Z,100341.06
2019-05-20T04:13:35.107Z,100348.62
2019-05-20T04:16:08.795Z,100345.03
2019-05-20T04:18:42.350Z,100351.25
2019-05-20T04:21:15.929Z,100347.46
2019-05-20T04:23:49.558Z,100350.92
2019-05-20T04:26:23.127Z,100350.32
2019-05-20T04:28:56.602Z,100355.89
2019-05-20T04:31:30.128Z,100353.47
2019-05-20T04:34:03.673Z,100353.47
2019-05-20T04:36:37.254Z,100352.76
2019-05-20T04:39:10.901Z,100350.58
2019-05-20T04:41:44.451Z,100354.09
2019-05-20T04:44:17.932Z,100354.20
2019-05-20T04:46:51.795Z,100349.59
2019-05-20T04:49:25.375Z,100349.98
2019-05-20T04:52:00.466Z,100352.02
2019-05-20T04:54:33.943Z,100350.70
2019-05-20T04:57:07.545Z,100352.09
2019-05-20T04:59:41.015Z,100350.74
2019-05-20T05:02:14.601Z,100355.64
2019-05-20T05:04:48.080Z,100355.20
2019-05-20T05:07:21.720Z,100358.22
2019-05-20T05:09:55.327Z,100354.75
2019-05-20T05:12:29.526Z,100350.41
2019-05-20T05:15:07.719Z,100341.52
2019-05-20T05:17:38.710Z,100345.13
2019-05-20T05:20:18.092Z,100351.50
2019-05-20T05:22:48.016Z,100349.95
2019-05-20T05:25:22.160Z,100345.19
2019-05-20T05:27:55.799Z,100352.64
2019-05-20T05:30:29.419Z,100360.33
2019-05-20T05:33:02.983Z,100355.12
2019-05-20T05:35:36.601Z,100361.20
2019-05-20T05:38:10.146Z,100360.92
2019-05-20T05:40:43.702Z,100361.95
2019-05-20T05:43:17.290Z,100365.55
2019-05-20T05:45:50.839Z,100370.22
2019-05-20T05:48:24.410Z,100376.06
2019-05-20T05:50:57.966Z,100372.52
2019-05-20T05:53:31.603Z,100376.09
2019-05-20T05:56:05.212Z,100376.55
2019-05-20T05:58:38.786Z,100378.22
2019-05-20T06:01:12.354Z,100384.32
2019-05-20T06:03:45.935Z,100378.98
2019-05-20T06:06:19.434Z,100374.16
2019-05-20T06:08:54.651Z,100379.68
2019-05-20T06:11:28.275Z,100374.13
2019-05-20T06:14:01.784Z,100373.66
2019-05-20T06:16:37.107Z,100367.26
2019-05-20T06:19:10.843Z,100373.17
2019-05-20T06:21:44.319Z,100380.05
2019-05-20T06:24:17.891Z,100374.44
2019-05-20T06:26:51.399Z,100380.14
2019-05-20T06:29:24.938Z,100391.82
2019-05-20T06:31:58.450Z,100387.97
2019-05-20T06:34:32.159Z,100383.89
2019-05-20T06:37:10.443Z,100385.17
2019-05-20T06:39:44.028Z,100391.64
2019-05-20T06:42:17.567Z,100385.53
2019-05-20T06:44:53.937Z,100388.89
2019-05-20T06:47:26.346Z,100395.53
2019-05-20T06:49:59.849Z,100400.55
2019-05-20T06:52:36.160Z,100401.01
2019-05-20T06:55:09.457Z,100398.78
2019-05-20T06:57:43.003Z,100400.04
2019-05-20T07:00:37.369Z,100403.21
2019-05-20T07:03:10.997Z,100404.98
2019-05-20T07:05:44.492Z,100398.74
2019-05-20T07:08:17.981Z,100410.13
2019-05-20T07:10:51.550Z,100411.00
2019-05-20T07:13:25.060Z,100410.78
2019-05-20T07:15:58.570Z,100412.17
2019-05-20T07:18:32.035Z,100416.66
2019-05-20T07:21:05.721Z,100415.57
2019-05-20T07:23:39.275Z,100406.52
2019-05-20T07:26:12.844Z,100412.21
2019-05-20T07:28:46.487Z,100411.77
2019-05-20T07:31:20.150Z,100416.55
2019-05-20T07:33:53.651Z,100410.19
2019-05-20T07:36:27.303Z,100396.42
2019-05-20T07:39:00.871Z,100401.45
2019-05-20T07:41:34.405Z,100406.36
2019-05-20T07:44:07.994Z,100401.29
2019-05-20T07:46:42.547Z,100407.58
2019-05-20T07:49:16.411Z,100405.20
2019-05-20T07:51:50.673Z,100404.62
2019-05-20T07:54:25.103Z,100398.59
2019-05-20T07:57:01.360Z,100404.66
2019-05-20T07:59:37.629Z,100407.31
2019-05-20T08:02:11.263Z,100414.37
2019-05-20T08:04:45.044Z,100414.22
2019-05-20T08:07:29.902Z,100415.32
2019-05-20T08:09:54.170Z,100422.41
2019-05-20T08:12:27.842Z,100419.94
2019-05-20T08:15:01.414Z,100417.44
2019-05-20T08:17:35.092Z,100426.87
2019-05-20T08:20:08.906Z,100423.76
2019-05-20T08:22:43.060Z,100428.13
2019-05-20T08:25:16.946Z,100423.28
2019-05-20T08:27:50.588Z,100428.86
2019-05-20T08:30:33.263Z,100424.56
2019-05-20T08:33:07.140Z,100428.00
2019-05-20T08:35:40.714Z,100424.85
2019-05-20T08:38:14.369Z,100426.75
2019-05-20T08:40:48.822Z,100429.22
2019-05-20T08:43:22.579Z,100425.61
2019-05-20T08:45:56.100Z,100423.19
2019-05-20T08:48:29.775Z,100421.20
2019-05-20T08:51:03.270Z,100418.83
2019-05-20T08:53:36.846Z,100412.97
2019-05-20T08:56:10.408Z,100408.52
2019-05-20T08:58:43.923Z,100413.23
2019-05-20T09:01:17.474Z,100405.80
2019-05-20T09:03:51.116Z,100423.00
2019-05-20T09:06:24.674Z,100423.30
2019-05-20T09:08:58.250Z,100415.52
2019-05-20T09:11:31.925Z,100422.41
2019-05-20T09:14:05.609Z,100425.91
2019-05-20T09:16:39.136Z,100424.75
2019-05-20T09:19:12.731Z,100422.55
2019-05-20T09:21:46.278Z,100412.80
2019-05-20T09:24:19.958Z,100415.50
2019-05-20T09:26:53.641Z,100403.17
2019-05-20T09:29:27.148Z,100409.85
2019-05-20T09:32:00.885Z,100406.91
2019-05-20T09:34:34.431Z,100400.34
2019-05-20T09:37:08.126Z,100413.00
2019-05-20T09:39:41.803Z,100415.55
2019-05-20T09:42:15.540Z,100421.75
2019-05-20T09:44:49.115Z,100414.75
2019-05-20T09:47:22.900Z,100407.88
2019-05-20T09:49:56.478Z,100402.59
2019-05-20T09:52:30.031Z,100407.96
2019-05-20T09:55:05.287Z,100406.59
2019-05-20T09:57:38.824Z,100401.85
2019-05-20T10:00:12.784Z,100404.22
2019-05-20T10:02:46.294Z,100407.44
2019-05-20T10:05:19.948Z,100402.63
2019-05-20T10:07:53.518Z,100415.55
2019-05-20T10:10:27.103Z,100414.69
2019-05-20T10:13:00.818Z,100410.00
2019-05-20T10:15:34.365Z,100406.29
2019-05-20T10:18:08.862Z,100402.92
2019-05-20T10:20:42.509Z,100404.69
2019-05-20T10:23:16.156Z,100401.95
2019-05-20T10:25:49.721Z,100400.08
2019-05-20T10:28:23.391Z,100400.57
2019-05-20T10:30:57.071Z,100392.97
2019-05-20T10:33:30.523Z,100389.23
2019-05-20T10:36:04.378Z,100386.97
2019-05-20T10:38:54.689Z,100382.11
2019-05-20T10:41:13.168Z,100386.38
2019-05-20T10:43:46.687Z,100384.37
2019-05-20T10:46:20.281Z,100387.36
2019-05-20T10:48:53.763Z,100382.91
2019-05-20T10:51:27.277Z,100382.69
2019-05-20T10:54:00.763Z,100387.62
2019-05-20T10:56:34.325Z,100389.63
2019-05-20T10:59:11.907Z,100395.92
2019-05-20T11:01:43.230Z,100392.45
2019-05-20T11:04:16.686Z,100393.39
2019-05-20T11:06:50.330Z,100387.77
2019-05-20T11:09:23.812Z,100385.21
2019-05-20T11:11:57.383Z,100392.70
2019-05-20T11:14:30.856Z,100388.83
2019-05-20T11:17:04.445Z,100388.98
2019-05-20T11:19:37.914Z,100386.17
2019-05-20T11:22:11.579Z,100375.27
2019-05-20T11:24:45.102Z,100389.23
2019-05-20T11:27:18.590Z,100402.20
2019-05-20T11:29:52.179Z,100394.58
2019-05-20T11:32:32.021Z,100384.07
2019-05-20T11:35:08.904Z,100383.17
2019-05-20T11:37:42.410Z,100389.91
2019-05-20T11:40:16.447Z,100385.69
2019-05-20T11:42:50.058Z,100385.25
2019-05-20T11:45:23.704Z,100391.98
2019-05-20T11:47:57.182Z,100398.08
2019-05-20T11:50:30.751Z,100396.70
2019-05-20T11:53:04.507Z,100399.08
2019-05-20T11:55:38.081Z,100398.73
2019-05-20T11:58:15.918Z,100397.32
2019-05-20T12:00:46.906Z,100394.21
2019-05-20T12:03:20.470Z,100397.66
2019-05-20T12:05:54.152Z,100391.89
2019-05-20T12:08:27.748Z,100395.30
2019-05-20T12:11:01.338Z,100398.48
2019-05-20T12:13:34.879Z,100393.83
2019-05-20T12:16:08.485Z,100392.21
2019-05-20T12:18:45.089Z,100394.63
2019-05-20T12:21:17.187Z,100390.15
2019-05-20T12:23:50.712Z,100388.99
2019-05-20T12:26:24.231Z,100382.07
2019-05-20T12:28:57.721Z,100376.25
2019-05-20T12:31:31.448Z,100376.82
2019-05-20T12:34:04.996Z,100377.22
2019-05-20T12:36:38.489Z,100382.10
2019-05-20T12:39:12.017Z,100377.27
2019-05-20T12:41:45.656Z,100364.11
2019-05-20T12:44:19.229Z,100357.10
2019-05-20T12:46:52.938Z,100349.89
2019-05-20T12:49:26.486Z,100352.74
2019-05-20T12:52:00.044Z,100349.63
2019-05-20T12:54:33.563Z,100345.89
2019-05-20T12:57:07.063Z,100342.05
2019-05-20T12:59:40.623Z,100339.81
2019-05-20T13:02:17.186Z,100334.53
2019-05-20T13:04:49.560Z,100331.44
2019-05-20T13:07:23.102Z,100333.00
2019-05-20T13:09:56.646Z,100343.53
2019-05-20T13:12:30.232Z,100331.73
2019-05-20T13:15:07.929Z,100325.47
2019-05-20T13:17:44.751Z,100323.42
2019-05-20T13:20:16.956Z,100330.19
2019-05-20T13:22:50.990Z,100335.76
2019-05-20T13:25:24.464Z,100338.31
2019-05-20T13:27:58.075Z,100329.40
2019-05-20T13:30:31.726Z,100333.46
2019-05-20T13:33:05.336Z,100346.35
2019-05-20T13:35:38.940Z,100324.52
2019-05-20T13:38:12.455Z,100336.92
2019-05-20T13:40:47.357Z,100338.14
2019-05-20T13:43:21.226Z,100327.28
2019-05-20T13:45:54.831Z,100321.59
2019-05-20T13:48:28.398Z,100314.20
2019-05-20T13:51:02.029Z,100315.11
2019-05-20T13:53:36.111Z,100319.05
2019-05-20T13:56:12.676Z,100318.09
2019-05-20T13:58:46.195Z,100314.19
2019-05-20T14:01:19.803Z,100317.88
2019-05-20T14:03:56.871Z,100307.78
2019-05-20T14:06:28.588Z,100305.84
2019-05-20T14:09:02.199Z,100294.65
2019-05-20T14:11:35.674Z,100292.14
2019-05-20T14:14:09.215Z,100296.30
2019-05-20T14:16:42.691Z,100295.49
2019-05-20T14:19:16.316Z,100293.09
2019-05-20T14:21:49.938Z,100290.04
2019-05-20T14:24:23.535Z,100289.01
2019-05-20T14:26:57.091Z,100289.59
2019-05-20T14:29:30.774Z,100285.25
2019-05-20T14:32:04.388Z,100288.78
2019-05-20T14:34:37.888Z,100278.05
2019-05-20T14:37:11.436Z,100280.75
2019-05-20T14:39:45.315Z,100274.35
2019-05-20T14:42:19.083Z,100274.97
2019-05-20T14:44:52.668Z,100272.70
2019-05-20T14:47:26.209Z,100282.59
2019-05-20T14:49:59.935Z,100298.14
2019-05-20T14:52:33.410Z,100289.61
2019-05-20T14:55:08.225Z,100301.72
2019-05-20T14:57:41.764Z,100300.45
2019-05-20T15:00:15.769Z,100299.58
2019-05-20T15:02:49.248Z,100299.92
2019-05-20T15:05:22.786Z,100312.06
2019-05-20T15:07:56.250Z,100308.79
2019-05-20T15:10:29.859Z,100315.75
2019-05-20T15:13:03.434Z,100309.44
2019-05-20T15:15:37.656Z,100307.30
2019-05-20T15:18:11.267Z,100298.78
2019-05-20T15:20:44.881Z,100296.46
2019-05-20T15:23:18.398Z,100287.67
2019-05-20T15:25:52.064Z,100286.17
2019-05-20T15:28:25.690Z,100277.86
2019-05-20T15:30:59.203Z,100258.70
2019-05-20T15:33:32.761Z,100246.59
2019-05-20T15:36:06.335Z,100247.77
2019-05-20T15:38:39.878Z,100249.91
2019-05-20T15:41:13.479Z,100260.87
2019-05-20T15:43:47.010Z,100266.12
2019-05-20T15:46:21.209Z,100265.08
2019-05-20T15:48:55.109Z,100262.65
2019-05-20T15:51:28.638Z,100268.47
2019-05-20T15:54:02.338Z,100266.05
2019-05-20T15:56:36.037Z,100269.27
2019-05-20T15:59:09.600Z,100273.77
2019-05-20T16:01:46.365Z,100267.06
2019-05-20T16:04:19.941Z,100265.42
2019-05-20T16:06:54.201Z,100268.08
2019-05-20T16:09:27.831Z,100264.84
2019-05-20T16:12:01.417Z,100257.61
2019-05-20T16:14:34.889Z,100256.50
2019-05-20T16:17:08.484Z,100258.59
2019-05-20T16:19:41.996Z,100265.56
2019-05-20T16:22:15.618Z,100268.95
2019-05-20T16:24:49.210Z,100276.31
2019-05-20T16:27:22.784Z,100265.91
2019-05-20T16:30:05.981Z,100274.10
2019-05-20T16:32:31.743Z,100282.54
2019-05-20T16:35:06.763Z,100281.85
2019-05-20T16:37:40.329Z,100292.79
2019-05-20T16:40:14.237Z,100289.59
2019-05-20T16:42:47.802Z,100294.92
2019-05-20T16:45:21.408Z,100288.25
2019-05-20T16:47:55.133Z,100294.27
2019-05-20T16:50:28.742Z,100278.44
2019-05-20T16:53:02.287Z,100280.02
2019-05-20T16:55:35.819Z,100283.36
2019-05-20T16:58:09.389Z,100279.94
2019-05-20T17:00:43.744Z,100282.64
2019-05-20T17:03:17.311Z,100284.13
2019-05-20T17:05:50.848Z,100293.49
2019-05-20T17:08:24.436Z,100280.69
2019-05-20T17:10:57.979Z,100275.80
2019-05-20T17:13:31.514Z,100281.49
2019-05-20T17:16:05.115Z,100269.48
2019-05-20T17:18:41.926Z,100271.03
2019-05-20T17:21:15.473Z,100276.09
2019-05-20T17:23:49.114Z,100278.39
2019-05-20T17:26:22.710Z,100292.67
2019-05-20T17:28:56.327Z,100285.16
2019-05-20T17:31:30.960Z,100281.47
2019-05-20T17:34:04.833Z,100273.42
2019-05-20T17:36:38.378Z,100276.25
2019-05-20T17:39:11.951Z,100281.95
2019-05-20T17:41:47.164Z,100287.39
2019-05-20T17:44:20.770Z,100289.27
2019-05-20T17:46:54.390Z,100285.98
2019-05-20T17:49:28.060Z,100289.50
2019-05-20T17:52:01.896Z,100292.08
2019-05-20T17:54:35.576Z,100287.80
2019-05-20T17:57:09.187Z,100288.63
2019-05-20T17:59:42.705Z,100293.07
2019-05-20T18:02:16.191Z,100289.67
2019-05-20T18:04:49.681Z,100289.02
2019-05-20T18:07:23.226Z,100293.25
2019-05-20T18:09:56.737Z,100294.78
2019-05-20T18:12:30.313Z,100291.52
2019-05-20T18:15:04.544Z,100290.53
2019-05-20T18:17:38.108Z,100294.34
2019-05-20T18:20:12.152Z,100294.98
2019-05-20T18:22:45.706Z,100295.39
2019-05-20T18:25:19.320Z,100291.83
2019-05-20T18:27:52.880Z,100292.22
2019-05-20T18:30:26.442Z,100300.41
2019-05-20T18:33:00.005Z,100310.34
2019-05-20T18:35:33.554Z,100316.16
2019-05-20T18:38:07.087Z,100320.39
2019-05-20T18:40:40.582Z,100322.87
2019-05-20T18:43:14.141Z,100319.77
2019-05-20T18:45:48.481Z,100316.70
2019-05-20T18:48:22.038Z,100317.05
2019-05-20T18:50:55.554Z,100319.44
2019-05-20T18:53:29.035Z,100313.11
2019-05-20T18:56:02.698Z,100310.49
2019-05-20T18:58:36.331Z,100313.59
2019-05-20T19:01:09.929Z,100316.20
2019-05-20T19:03:43.493Z,100314.52
2019-05-20T19:06:17.392Z,100318.98
2019-05-20T19:08:50.916Z,100323.19
2019-05-20T19:11:24.510Z,100324.05
2019-05-20T19:13:58.049Z,100321.46
2019-05-20T19:16:31.711Z,100325.39
2019-05-20T19:19:05.322Z,100320.80
2019-05-20T19:21:38.838Z,100320.19
2019-05-20T19:24:12.453Z,100314.33
2019-05-20T19:26:46.066Z,100313.33
2019-05-20T19:29:19.640Z,100314.08
2019-05-20T19:32:01.480Z,100310.59
2019-05-20T19:34:28.423Z,100309.72
2019-05-20T19:37:02.077Z,100305.25
2019-05-20T19:39:35.577Z,100307.25
2019-05-20T19:42:09.052Z,100312.31
2019-05-20T19:44:42.740Z,100305.23
2019-05-20T19:47:16.359Z,100310.44
2019-05-20T19:49:49.858Z,100310.91
2019-05-20T19:52:23.558Z,100301.73
2019-05-20T19:54:57.127Z,100300.86
2019-05-20T19:57:30.804Z,100304.30
2019-05-20T20:00:08.997Z,100298.22
2019-05-20T20:02:42.489Z,100304.66
2019-05-20T20:05:16.160Z,100298.97
2019-05-20T20:07:49.640Z,100302.62
2019-05-20T20:10:23.272Z,100288.16
2019-05-20T20:12:56.852Z,100286.95
2019-05-20T20:15:30.431Z,100292.45
2019-05-20T20:18:04.017Z,100291.77
2019-05-20T20:20:37.784Z,100294.41
2019-05-20T20:23:11.458Z,100277.56
2019-05-20T20:25:44.993Z,100283.20
2019-05-20T20:28:18.521Z,100279.45
2019-05-20T20:30:52.061Z,100283.87
2019-05-20T20:33:25.546Z,100282.61
2019-05-20T20:35:59.220Z,100290.77
2019-05-20T20:38:32.687Z,100286.97
2019-05-20T20:41:06.270Z,100284.16
2019-05-20T20:43:39.819Z,100288.38
2019-05-20T20:46:13.412Z,100290.88
2019-05-20T20:48:46.884Z,100302.13
2019-05-20T20:51:20.468Z,100299.46
2019-05-20T20:53:54.017Z,100301.84
2019-05-20T20:56:27.522Z,100296.98
2019-05-20T20:59:01.072Z,100308.52
2019-05-20T21:01:34.589Z,100302.47
2019-05-20T21:04:08.200Z,100304.65
2019-05-20T21:06:41.861Z,100304.56
2019-05-20T21:09:15.346Z,100300.57
2019-05-20T21:11:48.922Z,100306.97
2019-05-20T21:14:22.479Z,100302.47
2019-05-20T21:16:56.026Z,100302.22
2019-05-20T21:19:29.522Z,100306.61
2019-05-20T21:22:03.269Z,100305.74
2019-05-20T21:24:36.761Z,100293.52
2019-05-20T21:27:10.350Z,100283.30
2019-05-20T21:29:43.835Z,100284.30
2019-05-20T21:32:17.414Z,100291.03
2019-05-20T21:34:50.940Z,100283.20
2019-05-20T21:37:24.419Z,100278.70
2019-05-20T21:39:58.048Z,100287.91
2019-05-20T21:42:31.640Z,100284.64
2019-05-20T21:45:07.404Z,100275.94
2019-05-20T21:47:44.479Z,100281.38
2019-05-20T21:50:17.264Z,100276.40
2019-05-20T21:52:50.915Z,100276.58
2019-05-20T21:55:24.392Z,100269.31
2019-05-20T21:57:57.944Z,100272.33
2019-05-20T22:00:33.148Z,100268.61
2019-05-20T22:03:06.862Z,100268.52
2019-05-20T22:05:40.601Z,100270.27
2019-05-20T22:08:14.099Z,100266.10
2019-05-20T22:10:47.632Z,100256.47
2019-05-20T22:13:21.133Z,100255.12
2019-05-20T22:15:54.695Z,100247.59
2019-05-20T22:18:29.173Z,100250.69
2019-05-20T22:21:02.760Z,100251.53
2019-05-20T22:23:40.345Z,100259.19
2019-05-20T22:26:13.850Z,100264.43
2019-05-20T22:28:47.464Z,100252.12
2019-05-20T22:31:21.001Z,100246.08
2019-05-20T22:33:54.600Z,100242.88
2019-05-20T22:36:28.133Z,100250.63
2019-05-20T22:39:01.747Z,100251.02
2019-05-20T22:41:35.335Z,100242.78
2019-05-20T22:44:08.913Z,100241.42
2019-05-20T22:46:42.488Z,100244.30
2019-05-20T22:49:16.085Z,100235.94
2019-05-20T22:51:49.589Z,100237.14
2019-05-20T22:54:23.155Z,100241.86
2019-05-20T22:56:56.698Z,100240.88
2019-05-20T22:59:30.197Z,100241.27
2019-05-20T23:02:03.913Z,100243.60
2019-05-20T23:04:37.491Z,100242.34
2019-05-20T23:07:10.971Z,100236.75
2019-05-20T23:09:44.520Z,100233.06
2019-05-20T23:12:18.001Z,100238.40
2019-05-20T23:14:51.591Z,100240.11
2019-05-20T23:17:25.200Z,100235.30
2019-05-20T23:19:58.810Z,100234.68
2019-05-20T23:22:32.292Z,100238.75
2019-05-20T23:25:06.145Z,100242.24
2019-05-20T23:27:39.647Z,100246.31
2019-05-20T23:30:13.603Z,100248.45
2019-05-20T23:32:47.157Z,100239.92
2019-05-20T23:35:20.677Z,100235.75
2019-05-20T23:37:54.147Z,100242.41
2019-05-20T23:40:27.661Z,100237.84
2019-05-20T23:43:01.161Z,100236.78
2019-05-20T23:45:34.667Z,100240.63
2019-05-20T23:48:08.211Z,100243.73
2019-05-20T23:50:41.716Z,100252.66
2019-05-20T23:53:15.186Z,100253.78
2019-05-20T23:55:48.736Z,100252.81
2019-05-20T23:58:22.431Z,100246.51
